createdAt,value
2023-05-06T00:04:43.723Z,868
2023-05-06T00:10:14.164Z,868
2023-05-06T00:15:44.761Z,865
2023-05-06T00:21:15.208Z,871
2023-05-06T00:26:45.700Z,869
2023-05-06T00:32:16.267Z,871
2023-05-06T00:37:46.884Z,875
2023-05-06T00:43:17.493Z,876
2023-05-06T00:48:48.003Z,880
2023-05-06T00:54:18.428Z,873
2023-05-06T00:59:49.031Z,869
2023-05-06T01:05:19.626Z,872
2023-05-06T01:10:50.080Z,874
2023-05-06T01:16:20.716Z,868
2023-05-06T01:21:51.141Z,869
2023-05-06T01:27:20.658Z,870
2023-05-06T01:32:51.141Z,878
2023-05-06T01:38:21.589Z,873
2023-05-06T01:43:51.089Z,872
2023-05-06T01:49:21.564Z,878
2023-05-06T01:54:52.072Z,875
2023-05-06T02:00:22.738Z,871
2023-05-06T02:05:53.196Z,875
2023-05-06T02:11:23.777Z,870
2023-05-06T02:16:54.279Z,872
2023-05-06T02:22:24.727Z,868
2023-05-06T02:27:55.327Z,867
2023-05-06T02:33:25.790Z,873
2023-05-06T02:38:56.306Z,867
2023-05-06T02:44:26.899Z,872
2023-05-06T02:49:57.352Z,864
2023-05-06T02:55:27.814Z,874
2023-05-06T03:00:58.433Z,874
2023-05-06T03:06:28.880Z,878
2023-05-06T03:11:59.483Z,866
2023-05-06T03:17:30.034Z,864
2023-05-06T03:23:00.445Z,860
2023-05-06T03:28:29.956Z,860
2023-05-06T03:34:00.410Z,861
2023-05-06T03:39:30.898Z,853
2023-05-06T03:45:01.488Z,849
2023-05-06T03:50:31.980Z,846
2023-05-06T03:56:01.446Z,842
2023-05-06T04:01:31.938Z,846
2023-05-06T04:07:02.424Z,836
2023-05-06T04:12:33.040Z,832
2023-05-06T04:18:03.504Z,825
2023-05-06T04:23:34.074Z,821
2023-05-06T04:29:04.585Z,813
2023-05-06T04:34:35.059Z,819
2023-05-06T04:40:05.700Z,817
2023-05-06T04:45:36.126Z,813
2023-05-06T04:51:06.624Z,806
2023-05-06T04:56:37.200Z,806
2023-05-06T05:02:07.696Z,789
2023-05-06T05:07:38.171Z,785
2023-05-06T05:13:08.776Z,779
2023-05-06T05:18:39.218Z,591
2023-05-06T05:25:15.867Z,541
2023-05-06T05:30:46.548Z,533
2023-05-06T05:36:16.912Z,532
2023-05-06T05:41:46.418Z,537
2023-05-06T05:47:17.180Z,540
2023-05-06T05:52:46.778Z,544
2023-05-06T05:58:17.246Z,530
2023-05-06T06:03:47.038Z,569
2023-05-06T06:09:17.354Z,625
2023-05-06T06:14:47.899Z,662
2023-05-06T06:20:18.566Z,698
2023-05-06T06:25:48.911Z,706
2023-05-06T06:31:18.505Z,717
2023-05-06T06:36:47.055Z,745
2023-05-06T06:42:17.521Z,755
2023-05-06T06:47:48.042Z,769
2023-05-06T06:53:17.505Z,786
2023-05-06T06:58:47.127Z,805
2023-05-06T07:04:17.753Z,851
2023-05-06T07:09:48.446Z,867
2023-05-06T07:15:18.925Z,879
2023-05-06T07:20:49.641Z,625
2023-05-06T07:26:19.296Z,566
2023-05-06T07:31:49.759Z,561
2023-05-06T07:37:20.232Z,535
2023-05-06T07:42:50.902Z,516
2023-05-06T07:48:20.717Z,525
2023-05-06T07:53:50.150Z,513
2023-05-06T07:59:20.601Z,530
2023-05-06T08:04:51.885Z,549
2023-05-06T08:10:21.717Z,558
2023-05-06T08:15:50.243Z,563
2023-05-06T08:21:20.698Z,566
2023-05-06T08:26:51.169Z,575
2023-05-06T08:32:21.775Z,576
2023-05-06T08:37:52.533Z,576
2023-05-06T08:43:22.958Z,585
2023-05-06T08:48:53.438Z,584
2023-05-06T08:54:23.073Z,581
2023-05-06T08:59:53.799Z,589
2023-05-06T09:05:24.257Z,589
2023-05-06T09:10:53.887Z,586
2023-05-06T09:16:23.517Z,592
2023-05-06T09:21:53.876Z,584
2023-05-06T09:27:24.329Z,587
2023-05-06T09:34:01.050Z,591
2023-05-06T09:39:30.648Z,594
2023-05-06T09:45:02.213Z,591
2023-05-06T09:50:31.108Z,590
2023-05-06T09:56:01.313Z,590
2023-05-06T10:07:01.291Z,593
2023-05-06T10:12:31.760Z,591
2023-05-06T10:18:00.563Z,595
2023-05-06T10:23:31.248Z,590
2023-05-06T10:29:01.799Z,592
2023-05-06T10:34:31.244Z,595
2023-05-06T10:40:01.715Z,592
2023-05-06T10:45:32.405Z,595
2023-05-06T10:51:02.917Z,594
2023-05-06T10:56:33.423Z,592
2023-05-06T11:02:03.930Z,594
2023-05-06T11:07:33.377Z,596
2023-05-06T11:13:02.085Z,594
2023-05-06T11:18:32.484Z,600
2023-05-06T11:24:03.055Z,596
2023-05-06T11:29:33.539Z,573
2023-05-06T11:35:03.190Z,534
2023-05-06T11:40:33.802Z,535
2023-05-06T11:46:04.303Z,537
2023-05-06T11:57:05.323Z,576
2023-05-06T12:02:33.071Z,578
2023-05-06T12:08:03.637Z,575
2023-05-06T12:13:32.939Z,579
2023-05-06T12:19:03.719Z,572
2023-05-06T12:30:02.686Z,531
2023-05-06T12:35:33.119Z,535
2023-05-06T12:41:03.599Z,529
2023-05-06T12:46:33.119Z,541
2023-05-06T12:52:02.724Z,539
2023-05-06T12:57:33.432Z,525
2023-05-06T13:03:03.985Z,522
2023-05-06T13:08:34.416Z,502
2023-05-06T13:14:03.909Z,501
2023-05-06T13:19:34.497Z,505
2023-05-06T13:25:05.181Z,518
2023-05-06T13:30:35.685Z,516
2023-05-06T13:36:06.278Z,496
2023-05-06T13:41:36.770Z,495
2023-05-06T13:47:06.638Z,493
2023-05-06T13:52:37.118Z,489
2023-05-06T13:58:07.571Z,486
2023-05-06T14:03:37.190Z,477
2023-05-06T14:09:06.830Z,509
2023-05-06T14:14:37.291Z,553
2023-05-06T14:20:07.756Z,583
2023-05-06T14:25:37.227Z,598
2023-05-06T14:31:07.703Z,616
2023-05-06T14:36:38.297Z,624
2023-05-06T14:42:09.057Z,650
2023-05-06T14:47:39.469Z,669
2023-05-06T14:53:09.876Z,700
2023-05-06T14:58:40.326Z,719
2023-05-06T15:04:09.830Z,714
2023-05-06T15:09:40.305Z,726
2023-05-06T15:15:10.170Z,754
2023-05-06T15:20:40.434Z,776
2023-05-06T15:31:40.404Z,846
2023-05-06T15:37:10.014Z,845
2023-05-06T15:48:11.174Z,568
2023-05-06T15:59:12.105Z,595
2023-05-06T16:04:42.880Z,654
2023-05-06T16:10:13.468Z,708
2023-05-06T16:15:43.871Z,728
2023-05-06T16:21:14.413Z,578
2023-05-06T16:26:44.874Z,592
2023-05-06T16:32:15.350Z,626
2023-05-06T16:37:45.965Z,677
2023-05-06T16:43:16.443Z,689
2023-05-06T16:48:46.986Z,698
2023-05-06T16:54:17.532Z,710
2023-05-06T16:59:48.128Z,720
2023-05-06T17:05:20.642Z,730
2023-05-06T17:10:49.219Z,735
2023-05-06T17:16:19.695Z,738
2023-05-06T17:21:50.267Z,739
2023-05-06T17:27:20.763Z,753
2023-05-06T17:32:51.275Z,762
2023-05-06T17:38:20.726Z,768
2023-05-06T17:43:51.331Z,774
2023-05-06T17:49:21.901Z,775
2023-05-06T17:54:57.539Z,785
2023-05-06T18:00:22.852Z,787
2023-05-06T18:05:52.355Z,792
2023-05-06T18:12:28.918Z,797
2023-05-06T18:17:59.577Z,813
2023-05-06T18:23:30.178Z,822
2023-05-06T18:29:00.750Z,833
2023-05-06T18:34:31.227Z,836
2023-05-06T18:40:01.687Z,839
2023-05-06T18:45:32.381Z,846
2023-05-06T18:51:02.891Z,858
2023-05-06T18:56:33.383Z,855
2023-05-06T19:02:04.642Z,864
2023-05-06T19:07:34.445Z,874
2023-05-06T19:13:04.904Z,887
2023-05-06T19:18:35.507Z,895
2023-05-06T19:24:05.981Z,895
2023-05-06T19:35:07.079Z,906
2023-05-06T19:40:37.536Z,910
2023-05-06T19:57:08.059Z,948
2023-05-06T20:08:09.155Z,952
2023-05-06T20:13:39.630Z,952
2023-05-06T20:19:10.274Z,968
2023-05-06T20:24:40.706Z,973
2023-05-06T20:35:41.910Z,979
2023-05-06T20:41:12.371Z,980
2023-05-06T20:46:42.852Z,992
2023-05-06T20:52:13.429Z,995
2023-05-06T20:57:43.929Z,1001
2023-05-06T21:03:14.757Z,1004
2023-05-06T21:08:44.988Z,1015
2023-05-06T21:14:15.485Z,1019
2023-05-06T21:19:44.964Z,1025
2023-05-06T21:25:15.417Z,1033
2023-05-06T21:30:45.964Z,1034
2023-05-06T21:36:15.397Z,1042
2023-05-06T21:41:45.889Z,1049
2023-05-06T21:47:16.362Z,1043
2023-05-06T21:52:47.007Z,1030
2023-05-06T21:58:17.595Z,1022
2023-05-06T22:09:18.638Z,1004
2023-05-06T22:14:49.092Z,1004
2023-05-06T22:20:19.581Z,998
2023-05-06T22:31:20.820Z,985
2023-05-06T22:36:51.269Z,979
2023-05-06T22:42:21.875Z,978
2023-05-06T22:47:52.808Z,970
2023-05-06T22:53:22.929Z,969
2023-05-06T22:58:53.610Z,968
2023-05-06T23:04:23.989Z,960
2023-05-06T23:09:54.436Z,963
2023-05-06T23:15:25.021Z,955
2023-05-06T23:20:55.527Z,951
2023-05-06T23:31:56.573Z,957
2023-05-06T23:37:27.068Z,957
2023-05-06T23:42:57.742Z,952
2023-05-06T23:48:28.228Z,953
2023-05-06T23:53:58.695Z,949
2023-05-06T23:59:28.165Z,945
